createdAt,value
2018-11-03T00:01:06.003Z,72.86
2018-11-03T00:03:35.094Z,72.92
2018-11-03T00:06:04.085Z,72.66
2018-11-03T00:08:33.086Z,72.57
2018-11-03T00:11:04.392Z,73.08
2018-11-03T00:13:33.317Z,73.51
2018-11-03T00:16:04.215Z,72.70
2018-11-03T00:18:31.219Z,73.35
2018-11-03T00:21:00.250Z,73.28
2018-11-03T00:23:31.022Z,73.60
2018-11-03T00:25:58.312Z,73.81
2018-11-03T00:28:30.054Z,73.87
2018-11-03T00:30:59.060Z,73.70
2018-11-03T00:33:27.970Z,73.55
2018-11-03T00:35:56.900Z,73.23
2018-11-03T00:38:25.853Z,73.26
2018-11-03T00:40:54.761Z,73.67
2018-11-03T00:43:23.710Z,73.28
2018-11-03T00:45:52.637Z,73.36
2018-11-03T00:48:21.525Z,73.00
2018-11-03T00:50:50.450Z,72.78
2018-11-03T00:53:19.382Z,72.24
2018-11-03T00:55:48.284Z,73.00
2018-11-03T00:58:17.201Z,73.04
2018-11-03T01:00:46.165Z,72.92
2018-11-03T01:03:15.087Z,73.55
2018-11-03T01:05:43.980Z,73.80
2018-11-03T01:08:12.899Z,73.49
2018-11-03T01:10:41.762Z,73.43
2018-11-03T01:13:10.674Z,73.72
2018-11-03T01:15:39.577Z,73.86
2018-11-03T01:18:08.500Z,74.13
2018-11-03T01:20:37.437Z,74.31
2018-11-03T01:23:06.362Z,74.15
2018-11-03T01:25:35.283Z,73.36
2018-11-03T01:28:04.313Z,73.61
2018-11-03T01:30:33.237Z,73.46
2018-11-03T01:33:02.117Z,73.32
2018-11-03T01:35:31.071Z,73.96
2018-11-03T01:37:59.992Z,73.64
2018-11-03T01:40:28.906Z,73.86
2018-11-03T01:42:57.839Z,74.15
2018-11-03T01:45:26.756Z,73.98
2018-11-03T01:47:55.704Z,72.92
2018-11-03T01:50:24.599Z,73.85
2018-11-03T01:52:53.521Z,74.02
2018-11-03T01:55:22.433Z,74.10
2018-11-03T01:57:51.308Z,73.75
2018-11-03T02:00:20.214Z,73.85
2018-11-03T02:02:49.183Z,73.27
2018-11-03T02:05:18.090Z,73.36
2018-11-03T02:07:47.050Z,73.12
2018-11-03T02:10:15.961Z,73.31
2018-11-03T02:12:44.853Z,71.95
2018-11-03T02:15:13.759Z,73.14
2018-11-03T02:17:42.736Z,73.19
2018-11-03T02:20:12.248Z,73.33
2018-11-03T02:22:41.310Z,73.61
2018-11-03T02:25:10.715Z,73.38
2018-11-03T02:27:39.623Z,73.61
2018-11-03T02:30:09.334Z,74.20
2018-11-03T02:32:38.238Z,72.67
2018-11-03T02:35:07.921Z,72.50
2018-11-03T02:37:37.181Z,73.72
2018-11-03T02:40:07.270Z,71.78
2018-11-03T02:42:36.206Z,73.04
2018-11-03T02:45:06.379Z,73.57
2018-11-03T02:47:35.431Z,73.34
2018-11-03T02:50:05.289Z,73.37
2018-11-03T02:52:34.231Z,73.28
2018-11-03T02:55:03.132Z,73.23
2018-11-03T02:57:32.051Z,73.65
2018-11-03T03:00:01.027Z,73.15
2018-11-03T03:02:29.939Z,73.93
2018-11-03T03:04:58.842Z,74.50
2018-11-03T03:07:27.744Z,73.88
2018-11-03T03:09:56.630Z,74.22
2018-11-03T03:12:25.521Z,74.32
2018-11-03T03:14:54.397Z,74.33
2018-11-03T03:17:23.352Z,75.05
2018-11-03T03:19:52.257Z,75.13
2018-11-03T03:22:21.170Z,75.00
2018-11-03T03:24:50.063Z,74.45
2018-11-03T03:27:19.031Z,74.86
2018-11-03T03:29:47.936Z,75.02
2018-11-03T03:32:16.855Z,73.74
2018-11-03T03:34:45.810Z,74.96
2018-11-03T03:37:14.627Z,74.53
2018-11-03T03:39:43.513Z,74.59
2018-11-03T03:42:12.530Z,75.55
2018-11-03T03:44:41.407Z,75.14
2018-11-03T03:47:10.277Z,75.04
2018-11-03T03:49:39.267Z,75.52
2018-11-03T03:52:08.134Z,75.51
2018-11-03T03:54:37.049Z,75.05
2018-11-03T03:57:06.249Z,75.39
2018-11-03T03:59:35.156Z,74.64
2018-11-03T04:02:04.046Z,75.51
2018-11-03T04:04:33.007Z,75.52
2018-11-03T04:07:01.868Z,75.80
2018-11-03T04:09:30.789Z,75.79
2018-11-03T04:11:59.679Z,75.90
2018-11-03T04:14:28.606Z,74.60
2018-11-03T04:16:57.476Z,75.13
2018-11-03T04:19:26.418Z,74.95
2018-11-03T04:21:55.336Z,73.51
2018-11-03T04:24:24.225Z,74.68
2018-11-03T04:26:53.116Z,74.76
2018-11-03T04:29:22.032Z,74.21
2018-11-03T04:31:50.978Z,74.01
2018-11-03T04:34:19.909Z,74.15
2018-11-03T04:36:48.833Z,74.59
2018-11-03T04:39:17.728Z,74.44
2018-11-03T04:41:46.635Z,74.43
2018-11-03T04:44:15.548Z,74.56
2018-11-03T04:46:44.462Z,74.16
2018-11-03T04:49:13.340Z,73.68
2018-11-03T04:51:42.259Z,73.63
2018-11-03T04:54:11.137Z,74.31
2018-11-03T04:56:40.053Z,75.17
2018-11-03T04:59:08.931Z,75.02
2018-11-03T05:01:37.882Z,75.57
2018-11-03T05:04:06.791Z,75.76
2018-11-03T05:06:35.692Z,75.16
2018-11-03T05:09:06.397Z,75.80
2018-11-03T05:11:35.304Z,74.66
2018-11-03T05:14:04.418Z,75.63
2018-11-03T05:16:33.413Z,75.55
2018-11-03T05:19:02.318Z,75.57
2018-11-03T05:21:31.246Z,74.63
2018-11-03T05:24:00.170Z,73.04
2018-11-03T05:26:29.100Z,73.25
2018-11-03T05:28:58.082Z,74.55
2018-11-03T05:31:26.920Z,74.55
2018-11-03T05:33:55.833Z,75.17
2018-11-03T05:36:24.736Z,74.69
2018-11-03T05:38:53.733Z,74.90
2018-11-03T05:41:22.582Z,74.80
2018-11-03T05:43:51.491Z,74.98
2018-11-03T05:46:20.424Z,75.06
2018-11-03T05:48:49.304Z,75.05
2018-11-03T05:51:18.230Z,75.13
2018-11-03T05:53:47.138Z,73.14
2018-11-03T05:56:16.046Z,74.33
2018-11-03T05:58:44.959Z,74.38
2018-11-03T06:01:13.913Z,73.86
2018-11-03T06:03:43.048Z,73.71
2018-11-03T06:06:11.948Z,73.97
2018-11-03T06:08:40.913Z,74.54
2018-11-03T06:11:09.753Z,74.78
2018-11-03T06:13:38.658Z,75.09
2018-11-03T06:16:07.596Z,75.43
2018-11-03T06:18:36.486Z,75.50
2018-11-03T06:21:05.679Z,75.27
2018-11-03T06:23:34.597Z,75.35
2018-11-03T06:26:03.450Z,76.89
2018-11-03T06:28:32.353Z,76.81
2018-11-03T06:31:01.271Z,76.88
2018-11-03T06:33:30.176Z,76.55
2018-11-03T06:35:59.195Z,76.89
2018-11-03T06:38:28.064Z,77.00
2018-11-03T06:40:56.935Z,76.96
2018-11-03T06:43:25.850Z,76.35
2018-11-03T06:45:54.770Z,76.61
2018-11-03T06:48:23.697Z,76.39
2018-11-03T06:50:52.568Z,76.71
2018-11-03T06:53:21.480Z,76.68
2018-11-03T06:55:50.436Z,76.90
2018-11-03T06:58:19.362Z,76.78
2018-11-03T07:00:48.276Z,76.39
2018-11-03T07:03:17.173Z,76.22
2018-11-03T07:05:46.079Z,76.35
2018-11-03T07:08:14.967Z,75.81
2018-11-03T07:10:43.888Z,75.80
2018-11-03T07:13:12.891Z,75.76
2018-11-03T07:15:41.692Z,75.90
2018-11-03T07:18:10.597Z,75.62
2018-11-03T07:20:39.521Z,75.18
2018-11-03T07:23:08.438Z,75.18
2018-11-03T07:25:37.405Z,74.82
2018-11-03T07:28:06.469Z,74.58
2018-11-03T07:30:35.385Z,74.45
2018-11-03T07:33:04.368Z,74.49
2018-11-03T07:35:33.377Z,74.64
2018-11-03T07:38:02.283Z,74.45
2018-11-03T07:40:31.112Z,74.32
2018-11-03T07:43:00.040Z,74.27
2018-11-03T07:45:28.935Z,72.46
2018-11-03T07:47:57.909Z,73.37
2018-11-03T07:50:26.744Z,73.52
2018-11-03T07:52:55.661Z,73.00
2018-11-03T07:55:24.579Z,73.28
2018-11-03T07:57:53.508Z,72.71
2018-11-03T08:00:22.469Z,71.32
2018-11-03T08:02:51.373Z,70.94
2018-11-03T08:05:20.370Z,72.49
2018-11-03T08:07:49.266Z,72.80
2018-11-03T08:10:18.167Z,73.13
2018-11-03T08:12:47.114Z,73.46
2018-11-03T08:15:16.119Z,73.43
2018-11-03T08:17:45.023Z,73.81
2018-11-03T08:20:13.935Z,74.26
2018-11-03T08:22:42.833Z,74.01
2018-11-03T08:25:11.773Z,73.70
2018-11-03T08:27:40.788Z,73.73
2018-11-03T08:30:11.502Z,73.63
2018-11-03T08:32:40.411Z,74.40
2018-11-03T08:35:10.279Z,73.55
2018-11-03T08:37:39.625Z,72.47
2018-11-03T08:40:10.648Z,73.32
2018-11-03T08:42:40.071Z,73.02
2018-11-03T08:45:09.783Z,73.02
2018-11-03T08:47:38.707Z,73.25
2018-11-03T08:50:09.247Z,73.24
2018-11-03T08:52:38.278Z,72.57
2018-11-03T08:55:08.411Z,72.70
2018-11-03T08:57:37.358Z,72.08
2018-11-03T09:00:08.845Z,71.85
2018-11-03T09:02:37.746Z,72.33
2018-11-03T09:05:07.020Z,72.72
2018-11-03T09:07:36.768Z,72.87
2018-11-03T09:10:07.624Z,72.49
2018-11-03T09:12:36.691Z,72.52
2018-11-03T09:15:06.926Z,73.01
2018-11-03T09:17:36.509Z,73.29
2018-11-03T09:20:06.589Z,73.29
2018-11-03T09:22:36.039Z,73.20
2018-11-03T09:25:06.114Z,72.91
2018-11-03T09:27:35.001Z,72.84
2018-11-03T09:30:04.276Z,72.88
2018-11-03T09:32:33.242Z,72.90
2018-11-03T09:35:02.269Z,72.71
2018-11-03T09:37:31.166Z,71.92
2018-11-03T09:40:00.071Z,70.94
2018-11-03T09:42:29.018Z,69.55
2018-11-03T09:44:57.984Z,69.19
2018-11-03T09:47:26.860Z,69.03
2018-11-03T09:49:55.786Z,69.08
2018-11-03T09:52:24.686Z,68.98
2018-11-03T09:54:53.609Z,68.82
2018-11-03T09:57:22.549Z,68.66
2018-11-03T09:59:51.556Z,68.50
2018-11-03T10:02:20.469Z,66.10
2018-11-03T10:04:49.421Z,67.40
2018-11-03T10:07:18.446Z,65.71
2018-11-03T10:09:47.405Z,63.11
2018-11-03T10:12:16.407Z,59.64
2018-11-03T10:14:45.336Z,61.90
2018-11-03T10:17:14.359Z,61.47
2018-11-03T10:19:43.423Z,60.00
2018-11-03T10:22:12.372Z,58.70
2018-11-03T10:24:41.274Z,57.52
2018-11-03T10:27:10.208Z,56.12
2018-11-03T10:29:39.162Z,54.27
2018-11-03T10:32:08.113Z,53.42
2018-11-03T10:34:37.063Z,51.35
2018-11-03T10:37:05.982Z,51.64
2018-11-03T10:39:34.957Z,50.28
2018-11-03T10:42:03.855Z,49.83
2018-11-03T10:44:32.768Z,48.78
2018-11-03T10:47:01.911Z,48.09
2018-11-03T10:49:31.237Z,47.28
2018-11-03T10:52:02.975Z,47.21
2018-11-03T10:54:33.382Z,46.51
2018-11-03T10:57:06.005Z,46.28
2018-11-03T10:59:35.354Z,46.91
2018-11-03T11:02:30.196Z,47.14
2018-11-03T11:05:20.075Z,46.18
2018-11-03T11:08:06.892Z,45.42
2018-11-03T11:10:55.976Z,44.97
2018-11-03T11:13:27.146Z,43.78
2018-11-03T11:16:01.648Z,44.75
2018-11-03T11:18:30.575Z,44.65
2018-11-03T11:20:59.804Z,44.49
2018-11-03T11:23:33.869Z,45.71
2018-11-03T11:26:05.382Z,47.13
2018-11-03T11:28:32.357Z,48.18
2018-11-03T11:31:01.858Z,49.41
2018-11-03T11:33:32.170Z,50.13
2018-11-03T11:36:03.768Z,50.63
2018-11-03T11:38:33.321Z,51.32
2018-11-03T11:41:07.727Z,51.70
2018-11-03T11:43:37.049Z,52.60
2018-11-03T11:46:06.937Z,53.55
2018-11-03T11:48:36.590Z,54.02
2018-11-03T11:51:06.564Z,54.99
2018-11-03T11:53:36.038Z,54.07
2018-11-03T11:56:05.307Z,56.27
2018-11-03T11:58:34.849Z,55.46
2018-11-03T12:01:07.020Z,56.63
2018-11-03T12:03:36.507Z,56.66
2018-11-03T12:06:08.509Z,57.37
2018-11-03T12:08:37.588Z,57.35
2018-11-03T12:11:07.134Z,56.75
2018-11-03T12:13:39.081Z,56.47
2018-11-03T12:16:11.560Z,57.14
2018-11-03T12:18:40.794Z,57.64
2018-11-03T12:21:10.109Z,57.43
2018-11-03T12:23:44.176Z,57.94
2018-11-03T12:26:14.807Z,58.01
2018-11-03T12:28:44.021Z,57.43
2018-11-03T12:31:14.002Z,57.12
2018-11-03T12:33:44.051Z,57.07
2018-11-03T12:36:16.246Z,56.39
2018-11-03T12:38:45.610Z,56.74
2018-11-03T12:41:15.112Z,56.59
2018-11-03T12:43:45.083Z,57.45
2018-11-03T12:46:14.379Z,57.20
2018-11-03T12:48:43.648Z,57.94
2018-11-03T12:51:15.318Z,58.42
2018-11-03T12:53:49.163Z,59.14
2018-11-03T12:56:19.924Z,59.29
2018-11-03T12:58:52.049Z,59.62
2018-11-03T13:01:21.417Z,60.37
2018-11-03T13:03:55.211Z,58.18
2018-11-03T13:06:25.787Z,59.05
2018-11-03T13:08:55.593Z,59.42
2018-11-03T13:11:25.789Z,59.27
2018-11-03T13:13:59.680Z,59.69
2018-11-03T13:16:29.272Z,60.25
2018-11-03T13:19:00.765Z,59.96
2018-11-03T13:21:30.106Z,60.23
2018-11-03T13:24:01.373Z,61.21
2018-11-03T13:26:31.407Z,60.58
2018-11-03T13:29:00.726Z,61.27
2018-11-03T13:31:32.272Z,60.42
2018-11-03T13:34:03.459Z,61.95
2018-11-03T13:36:33.142Z,61.59
2018-11-03T13:39:06.617Z,61.20
2018-11-03T13:41:36.635Z,61.69
2018-11-03T13:44:10.959Z,62.36
2018-11-03T13:46:45.002Z,61.88
2018-11-03T13:49:12.888Z,62.63
2018-11-03T13:51:42.288Z,62.06
2018-11-03T13:54:14.407Z,61.30
2018-11-03T13:56:46.742Z,61.81
2018-11-03T13:59:19.082Z,61.57
2018-11-03T14:01:50.182Z,61.13
2018-11-03T14:04:19.361Z,61.23
2018-11-03T14:06:48.927Z,60.91
2018-11-03T14:09:18.100Z,61.06
2018-11-03T14:11:47.584Z,61.24
2018-11-03T14:14:17.356Z,61.03
2018-11-03T14:16:46.775Z,60.28
2018-11-03T14:19:15.915Z,59.88
2018-11-03T14:21:45.278Z,59.23
2018-11-03T14:24:17.436Z,59.59
2018-11-03T14:26:46.665Z,59.45
2018-11-03T14:29:16.345Z,59.24
2018-11-03T14:31:45.771Z,59.30
2018-11-03T14:34:15.485Z,59.43
2018-11-03T14:36:44.637Z,59.02
2018-11-03T14:39:16.907Z,59.80
2018-11-03T14:41:49.539Z,60.00
2018-11-03T14:44:24.915Z,60.60
2018-11-03T14:46:53.837Z,60.87
2018-11-03T14:49:25.809Z,61.19
2018-11-03T14:51:54.828Z,61.48
2018-11-03T14:54:26.429Z,61.46
2018-11-03T14:56:53.528Z,61.56
2018-11-03T14:59:25.866Z,61.82
2018-11-03T15:02:00.632Z,62.40
2018-11-03T15:04:33.003Z,62.52
2018-11-03T15:07:04.791Z,62.87
2018-11-03T15:09:38.548Z,62.62
2018-11-03T15:12:10.508Z,62.71
2018-11-03T15:14:41.304Z,63.16
2018-11-03T15:17:10.458Z,63.58
2018-11-03T15:19:41.878Z,64.13
2018-11-03T15:22:11.140Z,64.12
2018-11-03T15:24:45.451Z,64.63
2018-11-03T15:27:13.334Z,64.84
2018-11-03T15:29:42.805Z,65.40
2018-11-03T15:32:14.921Z,65.71
2018-11-03T15:34:48.802Z,66.19
2018-11-03T15:37:16.647Z,66.41
2018-11-03T15:39:45.909Z,67.02
2018-11-03T15:42:15.363Z,67.36
2018-11-03T15:44:44.563Z,67.72
2018-11-03T15:47:19.449Z,68.07
2018-11-03T15:49:49.073Z,68.42
2018-11-03T15:52:18.644Z,68.77
2018-11-03T15:54:49.002Z,69.06
2018-11-03T15:57:18.414Z,69.36
2018-11-03T15:59:47.495Z,69.31
2018-11-03T16:02:16.674Z,69.06
2018-11-03T16:04:47.033Z,68.97
2018-11-03T16:07:16.357Z,69.09
2018-11-03T16:09:45.918Z,69.21
2018-11-03T16:12:15.671Z,69.17
2018-11-03T16:14:46.685Z,69.12
2018-11-03T16:17:15.802Z,69.38
2018-11-03T16:19:46.248Z,69.81
2018-11-03T16:22:17.007Z,70.68
2018-11-03T16:24:47.269Z,71.10
2018-11-03T16:27:16.687Z,71.86
2018-11-03T16:29:46.443Z,72.04
2018-11-03T16:32:15.854Z,72.15
2018-11-03T16:34:46.391Z,72.53
2018-11-03T16:37:17.061Z,72.83
2018-11-03T16:39:48.798Z,73.33
2018-11-03T16:42:18.740Z,73.79
2018-11-03T16:44:47.785Z,73.83
2018-11-03T16:47:16.910Z,73.89
2018-11-03T16:49:46.272Z,74.19
2018-11-03T16:52:20.779Z,74.35
2018-11-03T16:54:49.860Z,73.85
2018-11-03T16:57:19.108Z,73.25
2018-11-03T16:59:51.029Z,73.39
2018-11-03T17:02:23.303Z,73.68
2018-11-03T17:04:52.443Z,73.93
2018-11-03T17:07:21.557Z,72.87
2018-11-03T17:09:50.755Z,73.79
2018-11-03T17:12:22.531Z,73.95
2018-11-03T17:14:51.708Z,74.08
2018-11-03T17:17:20.893Z,73.88
2018-11-03T17:19:53.890Z,74.00
2018-11-03T17:22:23.141Z,73.92
2018-11-03T17:24:52.439Z,73.86
2018-11-03T17:27:23.855Z,73.87
2018-11-03T17:29:53.006Z,73.06
2018-11-03T17:32:22.446Z,73.67
2018-11-03T17:34:54.896Z,74.33
2018-11-03T17:37:24.228Z,74.36
2018-11-03T17:39:53.585Z,74.85
2018-11-03T17:42:22.719Z,75.11
2018-11-03T17:44:54.807Z,75.00
2018-11-03T17:47:24.533Z,75.30
2018-11-03T17:49:55.830Z,75.04
2018-11-03T17:52:28.254Z,74.70
2018-11-03T17:54:57.342Z,74.42
2018-11-03T17:57:28.810Z,74.12
2018-11-03T18:00:01.310Z,74.18
2018-11-03T18:02:30.688Z,74.46
2018-11-03T18:04:59.885Z,74.58
2018-11-03T18:07:29.107Z,74.13
2018-11-03T18:10:00.047Z,73.92
2018-11-03T18:12:28.116Z,73.60
2018-11-03T18:14:57.405Z,73.78
2018-11-03T18:17:26.687Z,74.46
2018-11-03T18:19:56.058Z,74.40
2018-11-03T18:22:28.084Z,74.31
2018-11-03T18:25:00.872Z,74.32
2018-11-03T18:27:30.065Z,74.40
2018-11-03T18:29:59.214Z,74.57
2018-11-03T18:32:28.492Z,74.45
2018-11-03T18:35:02.994Z,74.50
2018-11-03T18:37:33.508Z,74.46
2018-11-03T18:40:05.683Z,74.67
2018-11-03T18:42:37.689Z,74.74
2018-11-03T18:45:08.982Z,74.84
2018-11-03T18:47:41.578Z,75.07
2018-11-03T18:50:15.262Z,75.01
2018-11-03T18:52:46.759Z,74.80
2018-11-03T18:55:16.057Z,74.51
2018-11-03T18:57:48.638Z,74.86
2018-11-03T19:00:20.342Z,75.02
2018-11-03T19:02:51.469Z,73.55
2018-11-03T19:05:24.591Z,74.98
2018-11-03T19:07:56.297Z,75.16
2018-11-03T19:10:25.675Z,75.38
2018-11-03T19:12:55.320Z,75.43
2018-11-03T19:15:26.409Z,75.31
2018-11-03T19:17:58.635Z,75.59
2018-11-03T19:20:28.085Z,75.71
2018-11-03T19:23:00.107Z,75.16
2018-11-03T19:25:26.812Z,75.94
2018-11-03T19:27:56.080Z,76.14
2018-11-03T19:30:25.491Z,75.83
2018-11-03T19:32:57.060Z,75.96
2018-11-03T19:35:26.382Z,75.67
2018-11-03T19:37:55.678Z,76.10
2018-11-03T19:40:25.166Z,76.12
2018-11-03T19:42:59.711Z,76.07
2018-11-03T19:45:28.983Z,76.02
2018-11-03T19:48:00.763Z,76.22
2018-11-03T19:50:32.014Z,75.93
2018-11-03T19:53:01.243Z,76.45
2018-11-03T19:55:32.880Z,76.64
2018-11-03T19:58:05.076Z,76.29
2018-11-03T20:00:38.937Z,75.07
2018-11-03T20:03:06.399Z,76.14
2018-11-03T20:05:35.587Z,76.07
2018-11-03T20:08:06.484Z,76.54
2018-11-03T20:10:38.407Z,76.32
2018-11-03T20:13:07.686Z,76.66
2018-11-03T20:15:36.966Z,76.55
2018-11-03T20:18:08.712Z,76.89
2018-11-03T20:20:38.069Z,76.58
2018-11-03T20:23:07.650Z,76.46
2018-11-03T20:25:38.599Z,76.07
2018-11-03T20:28:10.904Z,76.18
2018-11-03T20:30:40.297Z,75.71
2018-11-03T20:33:09.781Z,75.30
2018-11-03T20:35:39.013Z,75.42
2018-11-03T20:38:10.730Z,76.14
2018-11-03T20:40:39.786Z,76.32
2018-11-03T20:43:08.848Z,76.10
2018-11-03T20:45:38.077Z,75.43
2018-11-03T20:48:07.251Z,75.42
2018-11-03T20:50:36.556Z,74.51
2018-11-03T20:53:05.803Z,75.11
2018-11-03T20:55:35.003Z,75.27
2018-11-03T20:58:04.400Z,75.48
2018-11-03T21:00:35.602Z,76.07
2018-11-03T21:03:05.057Z,76.08
2018-11-03T21:05:39.436Z,76.18
2018-11-03T21:08:08.754Z,76.56
2018-11-03T21:10:37.874Z,76.31
2018-11-03T21:13:09.510Z,77.00
2018-11-03T21:15:39.338Z,77.16
2018-11-03T21:18:08.475Z,77.39
2018-11-03T21:20:38.183Z,77.10
2018-11-03T21:23:07.522Z,77.03
2018-11-03T21:25:37.245Z,77.17
2018-11-03T21:28:06.781Z,77.25
2018-11-03T21:30:38.218Z,77.80
2018-11-03T21:33:07.362Z,77.39
2018-11-03T21:35:36.014Z,77.55
2018-11-03T21:38:04.984Z,77.66
2018-11-03T21:40:33.884Z,77.66
2018-11-03T21:43:02.775Z,78.14
2018-11-03T21:45:31.656Z,77.88
2018-11-03T21:48:00.622Z,77.92
2018-11-03T21:50:29.535Z,78.16
2018-11-03T21:52:58.520Z,78.39
2018-11-03T21:55:27.360Z,77.09
2018-11-03T21:57:57.599Z,77.93
2018-11-03T22:00:29.366Z,78.56
2018-11-03T22:02:58.304Z,78.49
2018-11-03T22:05:27.287Z,78.59
2018-11-03T22:07:56.449Z,78.55
2018-11-03T22:10:25.798Z,78.19
2018-11-03T22:12:55.241Z,78.28
2018-11-03T22:15:24.146Z,77.96
2018-11-03T22:17:53.074Z,78.22
2018-11-03T22:20:21.979Z,78.08
2018-11-03T22:22:51.779Z,78.58
2018-11-03T22:25:20.644Z,78.66
2018-11-03T22:27:49.606Z,78.75
2018-11-03T22:30:18.529Z,78.98
2018-11-03T22:32:47.393Z,78.96
2018-11-03T22:35:16.310Z,78.85
2018-11-03T22:37:46.375Z,79.04
2018-11-03T22:40:15.309Z,78.31
2018-11-03T22:42:44.255Z,78.36
2018-11-03T22:45:13.257Z,78.41
2018-11-03T22:47:42.173Z,78.30
2018-11-03T22:50:11.097Z,78.60
2018-11-03T22:52:40.022Z,78.60
2018-11-03T22:55:10.110Z,78.50
2018-11-03T22:57:39.827Z,78.29
2018-11-03T23:00:11.385Z,77.67
2018-11-03T23:02:40.740Z,77.71
2018-11-03T23:05:10.886Z,77.78
2018-11-03T23:07:40.041Z,78.26
2018-11-03T23:10:09.044Z,78.64
2018-11-03T23:12:38.031Z,78.45
2018-11-03T23:15:07.769Z,78.45
2018-11-03T23:17:36.724Z,78.95
2018-11-03T23:20:08.828Z,78.87
2018-11-03T23:22:37.768Z,78.86
2018-11-03T23:25:06.917Z,78.41
2018-11-03T23:27:35.854Z,78.30
2018-11-03T23:30:06.967Z,78.28
2018-11-03T23:32:35.690Z,78.27
2018-11-03T23:35:05.119Z,75.91
2018-11-03T23:37:34.077Z,77.16
2018-11-03T23:40:03.041Z,77.17
2018-11-03T23:42:31.963Z,77.46
2018-11-03T23:45:01.057Z,76.08
2018-11-03T23:47:29.929Z,76.85
2018-11-03T23:49:58.920Z,76.98
2018-11-03T23:52:35.074Z,75.98
2018-11-03T23:55:05.589Z,76.93
2018-11-03T23:57:34.541Z,76.94
